Terminal Aerodrome Forecast
Issued by NWS North Platte, NE

Home | Current Version | Previous Version | Text Only | Print | Product List | Glossary On
Versions: 1 2 3 4 5 6 7 8 9 10 11 12 13 14 15 16 17 18 19 20 21 22 23
000
FTUS43 KLBF 182300
TAFVTN
TAF
KVTN 182320Z 1900/1924 22005KT P6SM SKC
     FM190600 22004KT 3SM BR SCT150
     FM191400 24006KT 5SM BR SCT150
     FM191600 25008KT P6SM SCT150=

USA.gov is the U.S. government's official web portal to all federal, state and local government web resources and services.